sensor_id;sensor_type;location;lat;lon;timestamp;pressure;altitude;pressure_sealevel;temperature;humidity
75039;BME280;63609;49.992;14.512;2023-09-08T00:03:31;98663.75;;;13.51;56.55
75039;BME280;63609;49.992;14.512;2023-09-08T00:05:58;98667.03;;;13.89;55.69
75039;BME280;63609;49.992;14.512;2023-09-08T00:08:25;98666.94;;;13.73;57.39
75039;BME280;63609;49.992;14.512;2023-09-08T00:10:52;98668.09;;;13.96;55.84
75039;BME280;63609;49.992;14.512;2023-09-08T00:13:19;98674.50;;;14.21;55.43
75039;BME280;63609;49.992;14.512;2023-09-08T00:15:46;98669.94;;;13.96;55.89
75039;BME280;63609;49.992;14.512;2023-09-08T00:18:13;98670.94;;;13.95;56.01
75039;BME280;63609;49.992;14.512;2023-09-08T00:20:40;98660.19;;;13.95;55.39
75039;BME280;63609;49.992;14.512;2023-09-08T00:23:08;98659.41;;;13.76;57.04
75039;BME280;63609;49.992;14.512;2023-09-08T00:25:35;98666.94;;;13.73;57.40
75039;BME280;63609;49.992;14.512;2023-09-08T00:28:03;98664.31;;;13.81;55.62
75039;BME280;63609;49.992;14.512;2023-09-08T00:30:30;98664.03;;;13.92;55.41
75039;BME280;63609;49.992;14.512;2023-09-08T00:32:57;98666.09;;;13.72;55.29
75039;BME280;63609;49.992;14.512;2023-09-08T00:35:24;98659.09;;;13.79;56.25
75039;BME280;63609;49.992;14.512;2023-09-08T00:37:51;98659.28;;;13.60;55.82
75039;BME280;63609;49.992;14.512;2023-09-08T00:40:18;98665.03;;;13.65;55.94
75039;BME280;63609;49.992;14.512;2023-09-08T00:42:45;98658.66;;;13.66;56.22
75039;BME280;63609;49.992;14.512;2023-09-08T00:45:14;98654.72;;;13.78;56.35
75039;BME280;63609;49.992;14.512;2023-09-08T00:47:43;98655.63;;;13.87;56.37
75039;BME280;63609;49.992;14.512;2023-09-08T00:50:11;98656.50;;;13.96;55.52
75039;BME280;63609;49.992;14.512;2023-09-08T00:52:38;98654.78;;;13.87;55.20
75039;BME280;63609;49.992;14.512;2023-09-08T00:55:05;98655.47;;;13.89;54.97
75039;BME280;63609;49.992;14.512;2023-09-08T00:57:32;98649.28;;;13.96;55.07
75039;BME280;63609;49.992;14.512;2023-09-08T00:59:59;98651.81;;;13.98;55.10
75039;BME280;63609;49.992;14.512;2023-09-08T01:02:27;98658.97;;;13.63;56.21
75039;BME280;63609;49.992;14.512;2023-09-08T01:04:54;98648.53;;;13.78;55.80
75039;BME280;63609;49.992;14.512;2023-09-08T01:07:21;98654.94;;;13.85;55.84
75039;BME280;63609;49.992;14.512;2023-09-08T01:09:49;98654.63;;;13.88;54.89
75039;BME280;63609;49.992;14.512;2023-09-08T01:12:16;98655.66;;;13.95;56.16
75039;BME280;63609;49.992;14.512;2023-09-08T01:14:44;98646.41;;;13.90;55.31
75039;BME280;63609;49.992;14.512;2023-09-08T01:17:11;98652.53;;;13.74;55.58
75039;BME280;63609;49.992;14.512;2023-09-08T01:19:39;98654.66;;;13.70;54.87
75039;BME280;63609;49.992;14.512;2023-09-08T01:27:45;98655.25;;;13.82;56.05
75039;BME280;63609;49.992;14.512;2023-09-08T01:30:14;98659.47;;;13.41;57.92
75039;BME280;63609;49.992;14.512;2023-09-08T01:32:42;98659.44;;;13.59;56.57
75039;BME280;63609;49.992;14.512;2023-09-08T01:35:11;98660.97;;;13.61;54.71
75039;BME280;63609;49.992;14.512;2023-09-08T01:37:45;98658.75;;;13.57;55.26
75039;BME280;63609;49.992;14.512;2023-09-08T01:40:13;98661.84;;;13.44;56.16
75039;BME280;63609;49.992;14.512;2023-09-08T01:42:41;98658.38;;;13.34;56.66
75039;BME280;63609;49.992;14.512;2023-09-08T01:45:09;98653.28;;;13.22;57.37
75039;BME280;63609;49.992;14.512;2023-09-08T01:47:37;98653.78;;;13.08;57.30
75039;BME280;63609;49.992;14.512;2023-09-08T01:50:04;98657.16;;;13.10;56.96
75039;BME280;63609;49.992;14.512;2023-09-08T01:52:32;98645.50;;;13.02;57.04
75039;BME280;63609;49.992;14.512;2023-09-08T01:55:00;98647.19;;;12.85;57.22
75039;BME280;63609;49.992;14.512;2023-09-08T01:57:29;98649.47;;;12.80;56.81
75039;BME280;63609;49.992;14.512;2023-09-08T01:59:56;98650.78;;;12.76;56.85
75039;BME280;63609;49.992;14.512;2023-09-08T02:02:24;98649.97;;;12.66;57.58
75039;BME280;63609;49.992;14.512;2023-09-08T02:04:51;98654.69;;;12.81;56.83
75039;BME280;63609;49.992;14.512;2023-09-08T02:07:18;98655.19;;;12.67;57.59
75039;BME280;63609;49.992;14.512;2023-09-08T02:09:48;98646.44;;;12.65;57.59
75039;BME280;63609;49.992;14.512;2023-09-08T02:12:15;98649.13;;;12.65;57.60
75039;BME280;63609;49.992;14.512;2023-09-08T02:14:42;98645.47;;;12.66;57.59
75039;BME280;63609;49.992;14.512;2023-09-08T02:17:09;98647.75;;;12.61;56.78
75039;BME280;63609;49.992;14.512;2023-09-08T02:19:36;98648.41;;;12.45;57.39
75039;BME280;63609;49.992;14.512;2023-09-08T02:22:03;98644.22;;;12.43;56.55
75039;BME280;63609;49.992;14.512;2023-09-08T02:24:30;98641.91;;;12.48;57.23
75039;BME280;63609;49.992;14.512;2023-09-08T02:26:57;98639.63;;;12.53;57.27
75039;BME280;63609;49.992;14.512;2023-09-08T02:29:24;98646.56;;;12.46;56.67
75039;BME280;63609;49.992;14.512;2023-09-08T02:31:52;98632.59;;;12.52;58.16
75039;BME280;63609;49.992;14.512;2023-09-08T02:34:19;98638.19;;;12.58;58.32
75039;BME280;63609;49.992;14.512;2023-09-08T02:36:46;98630.16;;;12.58;57.70
75039;BME280;63609;49.992;14.512;2023-09-08T02:39:22;98630.44;;;12.55;57.51
75039;BME280;63609;49.992;14.512;2023-09-08T02:41:50;98629.66;;;12.45;58.14
75039;BME280;63609;49.992;14.512;2023-09-08T02:44:17;98629.13;;;12.42;58.44
75039;BME280;63609;49.992;14.512;2023-09-08T02:46:45;98629.16;;;12.32;58.78
75039;BME280;63609;49.992;14.512;2023-09-08T02:49:12;98623.66;;;12.34;56.93
75039;BME280;63609;49.992;14.512;2023-09-08T02:51:39;98623.56;;;12.25;58.78
75039;BME280;63609;49.992;14.512;2023-09-08T02:54:06;98619.34;;;12.23;57.79
75039;BME280;63609;49.992;14.512;2023-09-08T02:56:37;98634.66;;;12.30;58.54
75039;BME280;63609;49.992;14.512;2023-09-08T02:59:04;98627.41;;;12.41;58.16
75039;BME280;63609;49.992;14.512;2023-09-08T03:01:37;98629.56;;;12.37;59.13
75039;BME280;63609;49.992;14.512;2023-09-08T03:04:04;98620.63;;;12.19;59.36
75039;BME280;63609;49.992;14.512;2023-09-08T03:06:32;98624.84;;;12.21;59.57
75039;BME280;63609;49.992;14.512;2023-09-08T03:09:00;98614.97;;;12.22;59.31
75039;BME280;63609;49.992;14.512;2023-09-08T03:11:28;98630.16;;;12.31;58.48
75039;BME280;63609;49.992;14.512;2023-09-08T03:13:56;98627.56;;;12.39;56.94
75039;BME280;63609;49.992;14.512;2023-09-08T03:16:23;98629.81;;;12.16;58.16
75039;BME280;63609;49.992;14.512;2023-09-08T03:18:50;98634.72;;;12.21;57.50
75039;BME280;63609;49.992;14.512;2023-09-08T03:21:18;98635.25;;;12.24;57.38
75039;BME280;63609;49.992;14.512;2023-09-08T03:23:45;98630.53;;;12.09;57.07
75039;BME280;63609;49.992;14.512;2023-09-08T03:26:12;98628.75;;;11.90;57.83
75039;BME280;63609;49.992;14.512;2023-09-08T03:28:42;98626.56;;;12.03;58.21
75039;BME280;63609;49.992;14.512;2023-09-08T03:31:09;98629.16;;;11.95;58.75
75039;BME280;63609;49.992;14.512;2023-09-08T03:33:36;98619.94;;;12.07;58.80
75039;BME280;63609;49.992;14.512;2023-09-08T03:36:35;98628.53;;;12.11;58.39
75039;BME280;63609;49.992;14.512;2023-09-08T03:39:05;98619.53;;;12.12;58.56
75039;BME280;63609;49.992;14.512;2023-09-08T03:41:37;98614.72;;;12.15;58.17
75039;BME280;63609;49.992;14.512;2023-09-08T03:44:04;98621.47;;;12.19;58.62
75039;BME280;63609;49.992;14.512;2023-09-08T03:46:31;98614.97;;;12.22;58.57
75039;BME280;63609;49.992;14.512;2023-09-08T03:48:58;98616.66;;;12.23;57.73
75039;BME280;63609;49.992;14.512;2023-09-08T03:51:27;98624.56;;;12.15;57.02
75039;BME280;63609;49.992;14.512;2023-09-08T03:53:55;98617.38;;;12.15;57.17
75039;BME280;63609;49.992;14.512;2023-09-08T03:56:21;98620.94;;;12.16;57.49
75039;BME280;63609;49.992;14.512;2023-09-08T03:58:48;98625.16;;;12.09;56.74
75039;BME280;63609;49.992;14.512;2023-09-08T04:01:18;98627.03;;;11.98;58.41
75039;BME280;63609;49.992;14.512;2023-09-08T04:03:45;98627.16;;;11.97;58.29
75039;BME280;63609;49.992;14.512;2023-09-08T04:06:12;98632.63;;;12.05;59.07
75039;BME280;63609;49.992;14.512;2023-09-08T04:08:39;98619.94;;;12.07;60.76
75039;BME280;63609;49.992;14.512;2023-09-08T04:11:06;98626.97;;;12.18;60.58
75039;BME280;63609;49.992;14.512;2023-09-08T04:13:33;98625.59;;;12.41;62.46
75039;BME280;63609;49.992;14.512;2023-09-08T04:16:00;98613.84;;;12.52;60.40
75039;BME280;63609;49.992;14.512;2023-09-08T04:18:27;98616.75;;;12.58;59.88
75039;BME280;63609;49.992;14.512;2023-09-08T04:20:56;98624.09;;;12.56;59.48
75039;BME280;63609;49.992;14.512;2023-09-08T04:23:23;98627.63;;;12.29;58.35
75039;BME280;63609;49.992;14.512;2023-09-08T04:25:50;98629.16;;;12.32;56.68
75039;BME280;63609;49.992;14.512;2023-09-08T04:28:16;98632.06;;;12.11;56.65
75039;BME280;63609;49.992;14.512;2023-09-08T04:30:43;98628.44;;;11.93;59.15
75039;BME280;63609;49.992;14.512;2023-09-08T04:33:10;98622.69;;;11.88;61.04
75039;BME280;63609;49.992;14.512;2023-09-08T04:35:37;98632.41;;;11.89;60.45
75039;BME280;63609;49.992;14.512;2023-09-08T04:38:06;98633.06;;;12.00;60.68
75039;BME280;63609;49.992;14.512;2023-09-08T04:40:33;98634.59;;;12.13;60.02
75039;BME280;63609;49.992;14.512;2023-09-08T04:43:00;98638.19;;;12.31;59.55
75039;BME280;63609;49.992;14.512;2023-09-08T04:45:27;98642.94;;;12.37;59.39
75039;BME280;63609;49.992;14.512;2023-09-08T04:47:54;98640.06;;;12.21;58.65
75039;BME280;63609;49.992;14.512;2023-09-08T04:50:22;98636.91;;;11.88;60.06
75039;BME280;63609;49.992;14.512;2023-09-08T04:52:50;98636.88;;;11.98;60.08
75039;BME280;63609;49.992;14.512;2023-09-08T04:55:18;98639.00;;;11.94;59.97
75039;BME280;63609;49.992;14.512;2023-09-08T04:57:46;98646.28;;;12.02;59.15
75039;BME280;63609;49.992;14.512;2023-09-08T05:00:14;98646.84;;;12.06;60.88
75039;BME280;63609;49.992;14.512;2023-09-08T05:02:41;98645.13;;;12.24;60.18
75039;BME280;63609;49.992;14.512;2023-09-08T05:05:09;98645.75;;;12.36;61.70
75039;BME280;63609;49.992;14.512;2023-09-08T05:07:36;98643.44;;;12.50;62.84
75039;BME280;63609;49.992;14.512;2023-09-08T05:10:03;98648.41;;;12.18;63.91
75039;BME280;63609;49.992;14.512;2023-09-08T05:12:34;98646.31;;;12.39;62.80
75039;BME280;63609;49.992;14.512;2023-09-08T05:15:02;98644.38;;;12.59;61.21
75039;BME280;63609;49.992;14.512;2023-09-08T05:17:39;98643.66;;;12.84;60.38
75039;BME280;63609;49.992;14.512;2023-09-08T05:20:07;98645.34;;;12.85;60.74
75039;BME280;63609;49.992;14.512;2023-09-08T05:22:35;98642.16;;;12.72;61.61
75039;BME280;63609;49.992;14.512;2023-09-08T05:25:03;98642.75;;;12.76;61.44
75039;BME280;63609;49.992;14.512;2023-09-08T05:27:31;98644.97;;;12.80;61.50
75039;BME280;63609;49.992;14.512;2023-09-08T05:29:58;98648.47;;;12.81;62.66
75039;BME280;63609;49.992;14.512;2023-09-08T05:32:25;98649.66;;;12.69;64.24
75039;BME280;63609;49.992;14.512;2023-09-08T05:34:53;98650.06;;;13.19;61.87
75039;BME280;63609;49.992;14.512;2023-09-08T05:37:20;98644.44;;;13.48;61.55
75039;BME280;63609;49.992;14.512;2023-09-08T05:39:46;98642.88;;;13.63;60.35
75039;BME280;63609;49.992;14.512;2023-09-08T05:42:14;98643.56;;;13.65;60.51
75039;BME280;63609;49.992;14.512;2023-09-08T05:44:41;98645.75;;;13.70;61.31
75039;BME280;63609;49.992;14.512;2023-09-08T05:47:07;98644.22;;;13.85;61.47
75039;BME280;63609;49.992;14.512;2023-09-08T05:49:38;98639.69;;;13.85;62.81
75039;BME280;63609;49.992;14.512;2023-09-08T05:52:05;98640.06;;;14.17;61.06
75039;BME280;63609;49.992;14.512;2023-09-08T05:54:33;98646.91;;;14.45;60.13
75039;BME280;63609;49.992;14.512;2023-09-08T05:57:00;98649.28;;;14.56;59.68
75039;BME280;63609;49.992;14.512;2023-09-08T05:59:28;98649.06;;;14.41;60.10
75039;BME280;63609;49.992;14.512;2023-09-08T06:01:56;98645.94;;;14.20;61.15
75039;BME280;63609;49.992;14.512;2023-09-08T06:04:22;98641.63;;;14.27;62.35
75039;BME280;63609;49.992;14.512;2023-09-08T06:06:50;98643.06;;;14.56;60.19
75039;BME280;63609;49.992;14.512;2023-09-08T06:09:16;98654.78;;;14.97;60.14
75039;BME280;63609;49.992;14.512;2023-09-08T06:11:43;98650.81;;;14.67;61.41
75039;BME280;63609;49.992;14.512;2023-09-08T06:14:10;98647.69;;;14.80;60.59
75039;BME280;63609;49.992;14.512;2023-09-08T06:16:40;98649.47;;;15.29;59.50
75039;BME280;63609;49.992;14.512;2023-09-08T06:19:07;98646.47;;;15.41;59.33
75039;BME280;63609;49.992;14.512;2023-09-08T06:21:34;98654.53;;;15.65;59.78
75039;BME280;63609;49.992;14.512;2023-09-08T06:24:02;98646.59;;;16.04;57.44
75039;BME280;63609;49.992;14.512;2023-09-08T06:26:31;98644.16;;;16.34;56.84
75039;BME280;63609;49.992;14.512;2023-09-08T06:28:58;98648.09;;;16.15;57.54
75039;BME280;63609;49.992;14.512;2023-09-08T06:31:25;98648.94;;;16.54;56.95
75039;BME280;63609;49.992;14.512;2023-09-08T06:33:52;98634.25;;;16.65;56.94
75039;BME280;63609;49.992;14.512;2023-09-08T06:36:21;98639.97;;;17.01;56.11
75039;BME280;63609;49.992;14.512;2023-09-08T06:38:51;98639.50;;;17.43;55.33
75039;BME280;63609;49.992;14.512;2023-09-08T06:41:19;98645.63;;;17.60;54.30
75039;BME280;63609;49.992;14.512;2023-09-08T06:43:46;98644.06;;;17.66;54.29
75039;BME280;63609;49.992;14.512;2023-09-08T06:46:18;98637.66;;;17.67;53.64
75039;BME280;63609;49.992;14.512;2023-09-08T06:48:46;98643.16;;;17.73;53.97
75039;BME280;63609;49.992;14.512;2023-09-08T06:51:13;98644.50;;;18.07;53.66
75039;BME280;63609;49.992;14.512;2023-09-08T06:53:42;98647.25;;;18.36;53.19
75039;BME280;63609;49.992;14.512;2023-09-08T06:56:11;98647.41;;;18.50;52.65
75039;BME280;63609;49.992;14.512;2023-09-08T06:58:38;98642.63;;;18.22;52.82
75039;BME280;63609;49.992;14.512;2023-09-08T07:01:05;98650.75;;;18.22;53.90
75039;BME280;63609;49.992;14.512;2023-09-08T07:03:33;98646.75;;;18.62;53.29
75039;BME280;63609;49.992;14.512;2023-09-08T07:06:06;98656.56;;;18.48;53.21
75039;BME280;63609;49.992;14.512;2023-09-08T07:08:35;98640.72;;;18.96;52.01
75039;BME280;63609;49.992;14.512;2023-09-08T07:11:03;98644.50;;;19.17;51.85
75039;BME280;63609;49.992;14.512;2023-09-08T07:13:30;98645.53;;;19.16;51.93
75039;BME280;63609;49.992;14.512;2023-09-08T07:15:58;98647.88;;;18.68;52.94
75039;BME280;63609;49.992;14.512;2023-09-08T07:18:25;98643.38;;;19.26;52.20
75039;BME280;63609;49.992;14.512;2023-09-08T07:21:20;98648.66;;;19.34;52.56
75039;BME280;63609;49.992;14.512;2023-09-08T07:24:21;98651.16;;;18.99;53.58
75039;BME280;63609;49.992;14.512;2023-09-08T07:27:19;98656.25;;;19.45;52.87
75039;BME280;63609;49.992;14.512;2023-09-08T07:30:18;98650.59;;;20.17;51.48
75039;BME280;63609;49.992;14.512;2023-09-08T07:33:02;98639.34;;;20.20;49.46
75039;BME280;63609;49.992;14.512;2023-09-08T07:36:40;98639.84;;;20.65;49.20
75039;BME280;63609;49.992;14.512;2023-09-08T07:39:40;98642.28;;;21.08;48.05
75039;BME280;63609;49.992;14.512;2023-09-08T07:45:58;98638.63;;;21.42;42.72
75039;BME280;63609;49.992;14.512;2023-09-08T07:58:45;98640.75;;;21.93;41.23
75039;BME280;63609;49.992;14.512;2023-09-08T08:01:13;98638.69;;;21.88;40.50
75039;BME280;63609;49.992;14.512;2023-09-08T08:03:40;98642.41;;;22.20;40.02
75039;BME280;63609;49.992;14.512;2023-09-08T08:06:07;98630.72;;;22.00;40.81
75039;BME280;63609;49.992;14.512;2023-09-08T08:08:39;98639.47;;;22.22;40.12
75039;BME280;63609;49.992;14.512;2023-09-08T08:11:14;98636.94;;;22.91;38.68
75039;BME280;63609;49.992;14.512;2023-09-08T08:13:41;98635.41;;;23.02;38.64
75039;BME280;63609;49.992;14.512;2023-09-08T08:16:09;98635.97;;;23.24;37.92
75039;BME280;63609;49.992;14.512;2023-09-08T08:18:37;98638.47;;;23.57;37.93
75039;BME280;63609;49.992;14.512;2023-09-08T08:21:05;98628.03;;;23.72;36.60
75039;BME280;63609;49.992;14.512;2023-09-08T08:23:32;98621.94;;;24.01;36.73
75039;BME280;63609;49.992;14.512;2023-09-08T08:26:01;98628.25;;;23.77;37.24
75039;BME280;63609;49.992;14.512;2023-09-08T08:28:28;98619.31;;;23.63;36.06
75039;BME280;63609;49.992;14.512;2023-09-08T08:30:58;98618.31;;;24.08;34.82
75039;BME280;63609;49.992;14.512;2023-09-08T08:33:26;98621.72;;;24.46;36.01
75039;BME280;63609;49.992;14.512;2023-09-08T08:35:53;98625.13;;;24.42;34.71
75039;BME280;63609;49.992;14.512;2023-09-08T08:38:23;98623.81;;;24.44;34.41
75039;BME280;63609;49.992;14.512;2023-09-08T08:40:50;98618.88;;;24.71;34.08
75039;BME280;63609;49.992;14.512;2023-09-08T08:43:17;98617.91;;;24.66;34.60
75039;BME280;63609;49.992;14.512;2023-09-08T08:45:46;98622.00;;;24.38;34.87
75039;BME280;63609;49.992;14.512;2023-09-08T08:48:18;98624.25;;;23.73;36.05
75039;BME280;63609;49.992;14.512;2023-09-08T08:50:47;98612.47;;;23.86;35.94
75039;BME280;63609;49.992;14.512;2023-09-08T08:53:15;98612.13;;;24.92;33.54
75039;BME280;63609;49.992;14.512;2023-09-08T08:55:44;98617.16;;;24.95;33.91
75039;BME280;63609;49.992;14.512;2023-09-08T08:58:11;98617.72;;;25.57;32.34
75039;BME280;63609;49.992;14.512;2023-09-08T09:00:41;98616.59;;;25.76;31.80
75039;BME280;63609;49.992;14.512;2023-09-08T09:03:08;98613.00;;;25.04;32.81
75039;BME280;63609;49.992;14.512;2023-09-08T09:05:42;98615.84;;;25.69;32.74
75039;BME280;63609;49.992;14.512;2023-09-08T09:08:16;98613.81;;;25.53;31.77
75039;BME280;63609;49.992;14.512;2023-09-08T09:10:45;98615.69;;;24.19;33.53
75039;BME280;63609;49.992;14.512;2023-09-08T09:13:11;98615.22;;;23.79;34.89
75039;BME280;63609;49.992;14.512;2023-09-08T09:15:38;98610.03;;;23.96;33.28
75039;BME280;63609;49.992;14.512;2023-09-08T09:18:07;98611.63;;;23.85;34.15
75039;BME280;63609;49.992;14.512;2023-09-08T09:20:35;98614.44;;;23.97;34.41
75039;BME280;63609;49.992;14.512;2023-09-08T09:23:02;98606.19;;;24.04;33.04
75039;BME280;63609;49.992;14.512;2023-09-08T09:25:31;98601.19;;;24.00;33.45
75039;BME280;63609;49.992;14.512;2023-09-08T09:28:00;98602.69;;;24.58;34.90
75039;BME280;63609;49.992;14.512;2023-09-08T09:30:46;98604.59;;;25.47;32.38
75039;BME280;63609;49.992;14.512;2023-09-08T09:33:14;98601.72;;;25.84;30.73
75039;BME280;63609;49.992;14.512;2023-09-08T09:35:47;98590.59;;;25.44;31.02
75039;BME280;63609;49.992;14.512;2023-09-08T09:38:15;98603.34;;;25.62;31.67
75039;BME280;63609;49.992;14.512;2023-09-08T09:40:47;98602.56;;;26.20;29.56
75039;BME280;63609;49.992;14.512;2023-09-08T09:43:16;98598.03;;;25.90;30.75
75039;BME280;63609;49.992;14.512;2023-09-08T09:45:45;98601.22;;;26.45;31.21
75039;BME280;63609;49.992;14.512;2023-09-08T09:48:13;98598.50;;;25.75;30.42
75039;BME280;63609;49.992;14.512;2023-09-08T09:50:41;98596.34;;;25.24;30.53
75039;BME280;63609;49.992;14.512;2023-09-08T09:53:15;98596.75;;;25.09;31.83
75039;BME280;63609;49.992;14.512;2023-09-08T09:55:45;98594.09;;;25.21;32.57
75039;BME280;63609;49.992;14.512;2023-09-08T09:58:12;98589.03;;;25.06;32.05
75039;BME280;63609;49.992;14.512;2023-09-08T10:00:41;98599.31;;;25.22;32.14
75039;BME280;63609;49.992;14.512;2023-09-08T10:03:08;98597.75;;;25.57;32.12
75039;BME280;63609;49.992;14.512;2023-09-08T10:05:37;98596.47;;;25.94;31.10
75039;BME280;63609;49.992;14.512;2023-09-08T10:08:06;98589.13;;;25.41;30.97
75039;BME280;63609;49.992;14.512;2023-09-08T10:10:33;98594.50;;;26.13;30.09
75039;BME280;63609;49.992;14.512;2023-09-08T10:13:06;98590.91;;;26.12;29.90
75039;BME280;63609;49.992;14.512;2023-09-08T10:15:36;98598.66;;;26.79;30.24
75039;BME280;63609;49.992;14.512;2023-09-08T10:18:05;98586.53;;;27.65;29.71
75039;BME280;63609;49.992;14.512;2023-09-08T10:20:36;98585.56;;;28.27;26.71
75039;BME280;63609;49.992;14.512;2023-09-08T10:23:26;98585.09;;;27.29;27.71
75039;BME280;63609;49.992;14.512;2023-09-08T10:25:59;98591.13;;;26.23;29.15
75039;BME280;63609;49.992;14.512;2023-09-08T10:28:31;98587.78;;;26.32;29.37
75039;BME280;63609;49.992;14.512;2023-09-08T10:31:00;98579.97;;;26.64;28.85
75039;BME280;63609;49.992;14.512;2023-09-08T10:33:28;98592.50;;;27.29;28.82
75039;BME280;63609;49.992;14.512;2023-09-08T10:35:59;98578.84;;;27.79;25.48
75039;BME280;63609;49.992;14.512;2023-09-08T10:38:33;98569.22;;;28.15;24.68
75039;BME280;63609;49.992;14.512;2023-09-08T10:43:56;98569.56;;;28.02;24.77
75039;BME280;63609;49.992;14.512;2023-09-08T10:46:28;98572.00;;;28.59;25.77
75039;BME280;63609;49.992;14.512;2023-09-08T10:49:04;98566.09;;;28.94;24.86
75039;BME280;63609;49.992;14.512;2023-09-08T10:51:34;98569.31;;;28.64;25.15
75039;BME280;63609;49.992;14.512;2023-09-08T10:54:01;98555.03;;;29.38;24.45
75039;BME280;63609;49.992;14.512;2023-09-08T10:56:47;98560.56;;;29.16;23.71
75039;BME280;63609;49.992;14.512;2023-09-08T10:59:17;98554.50;;;29.14;23.03
75039;BME280;63609;49.992;14.512;2023-09-08T11:01:47;98552.88;;;28.04;24.54
75039;BME280;63609;49.992;14.512;2023-09-08T11:04:14;98551.44;;;27.34;26.54
